Time,TemperatureF,DewpointF,PressureIn,WindDirection,WindDirectionDegrees,WindSpeedMPH,WindSpeedGustMPH,Humidity,HourlyPrecipIn,Conditions,Clouds,dailyrainin,SoftwareType,DateUTC
2013-03-05 00:02:00,48.0,45.0,30.17,NW,304,0.0,0.0,88,0.00,,,0.00,,2013-03-05 05:02:00,
2013-03-05 00:12:00,48.0,45.0,30.17,NW,304,0.0,0.0,88,0.00,,,0.00,,2013-03-05 05:12:00,
2013-03-05 00:22:00,48.0,45.0,30.17,NNW,335,0.0,0.0,89,0.00,,,0.00,,2013-03-05 05:22:00,
2013-03-05 00:32:00,48.0,45.0,30.17,WSW,248,0.0,0.0,90,0.00,,,0.00,,2013-03-05 05:32:00,
2013-03-05 00:42:00,48.0,45.0,30.17,WSW,248,0.0,0.0,90,0.00,,,0.00,,2013-03-05 05:42:00,
2013-03-05 00:52:00,48.0,45.0,30.17,WNW,292,0.0,0.0,90,0.00,,,0.00,,2013-03-05 05:52:00,
2013-03-05 01:01:00,47.0,44.0,30.17,WNW,302,0.0,0.0,90,0.00,,,0.00,,2013-03-05 06:01:00,
2013-03-05 01:11:00,47.0,44.0,30.17,WNW,302,0.0,0.0,90,0.00,,,0.00,,2013-03-05 06:11:00,
2013-03-05 01:22:00,47.0,45.0,30.16,West,270,0.0,0.0,91,0.00,,,0.00,,2013-03-05 06:22:00,
2013-03-05 01:32:00,47.0,45.0,30.16,West,270,0.0,0.0,91,0.00,,,0.00,,2013-03-05 06:32:00,
2013-03-05 01:42:00,47.0,45.0,30.16,West,270,0.0,0.0,91,0.00,,,0.00,,2013-03-05 06:42:00,
2013-03-05 01:52:00,47.0,45.0,30.16,West,278,0.0,0.0,92,0.00,,,0.00,,2013-03-05 06:52:00,
2013-03-05 02:01:00,47.0,45.0,30.15,NNW,333,0.0,0.0,92,0.00,,,0.00,,2013-03-05 07:01:00,
2013-03-05 02:11:00,47.0,45.0,30.15,NNW,333,0.0,0.0,92,0.00,,,0.00,,2013-03-05 07:11:00,
2013-03-05 02:22:00,47.0,45.0,30.15,NW,321,0.0,0.0,92,0.00,,,0.00,,2013-03-05 07:22:00,
2013-03-05 02:31:00,47.0,45.0,30.14,West,276,0.0,0.0,92,0.00,,,0.00,,2013-03-05 07:31:00,
2013-03-05 02:42:00,47.0,45.0,30.14,West,276,0.0,0.0,92,0.00,,,0.00,,2013-03-05 07:42:00,
2013-03-05 02:52:00,47.0,45.0,30.14,NNE,22,0.0,0.0,92,0.00,,,0.00,,2013-03-05 07:52:00,
2013-03-05 03:02:00,46.0,44.0,30.14,NE,45,0.0,0.0,92,0.00,,,0.00,,2013-03-05 08:02:00,
2013-03-05 03:11:00,46.0,44.0,30.14,NE,45,0.0,0.0,92,0.00,,,0.00,,2013-03-05 08:11:00,
2013-03-05 03:21:00,46.0,44.0,30.13,NE,45,0.0,0.0,92,0.00,,,0.00,,2013-03-05 08:21:00,
2013-03-05 03:31:00,45.0,43.0,30.13,WNW,285,0.0,0.0,92,0.00,,,0.00,,2013-03-05 08:31:00,
2013-03-05 03:41:00,45.0,43.0,30.13,WNW,285,0.0,0.0,92,0.00,,,0.00,,2013-03-05 08:41:00,
2013-03-05 03:52:00,45.0,43.0,30.13,West,270,0.0,0.0,93,0.00,,,0.00,,2013-03-05 08:52:00,
2013-03-05 04:01:00,45.0,43.0,30.13,West,270,0.0,0.0,93,0.00,,,0.00,,2013-03-05 09:01:00,
2013-03-05 04:11:00,45.0,43.0,30.13,West,270,0.0,0.0,93,0.00,,,0.00,,2013-03-05 09:11:00,
2013-03-05 04:21:00,45.0,43.0,30.13,West,270,0.0,0.0,93,0.00,,,0.00,,2013-03-05 09:21:00,
2013-03-05 04:32:00,45.0,43.0,30.13,West,279,0.0,0.0,93,0.00,,,0.00,,2013-03-05 09:32:00,
2013-03-05 04:42:00,45.0,43.0,30.13,West,279,0.0,0.0,93,0.00,,,0.00,,2013-03-05 09:42:00,
2013-03-05 04:52:00,44.0,42.0,30.13,WNW,285,0.0,0.0,93,0.00,,,0.00,,2013-03-05 09:52:00,
2013-03-05 05:01:00,44.0,42.0,30.13,WNW,292,0.0,0.0,94,0.00,,,0.00,,2013-03-05 10:01:00,
2013-03-05 05:11:00,44.0,42.0,30.13,WNW,292,0.0,0.0,94,0.00,,,0.00,,2013-03-05 10:11:00,
2013-03-05 05:21:00,44.0,43.0,30.14,NNE,22,0.0,0.0,95,0.00,,,0.00,,2013-03-05 10:21:00,
2013-03-05 05:32:00,44.0,43.0,30.14,West,270,0.0,0.0,95,0.00,,,0.00,,2013-03-05 10:32:00,
2013-03-05 05:42:00,44.0,43.0,30.14,West,270,0.0,0.0,95,0.00,,,0.00,,2013-03-05 10:42:00,
2013-03-05 05:52:00,44.0,43.0,30.14,East,90,0.0,0.0,95,0.00,,,0.00,,2013-03-05 10:52:00,
2013-03-05 06:01:00,45.0,44.0,30.15,SE,135,0.0,0.0,95,0.00,,,0.00,,2013-03-05 11:01:00,
2013-03-05 06:11:00,45.0,44.0,30.15,SE,135,0.0,0.0,95,0.00,,,0.00,,2013-03-05 11:11:00,
2013-03-05 06:22:00,44.0,43.0,30.15,SE,135,0.0,0.0,95,0.00,,,0.00,,2013-03-05 11:22:00,
2013-03-05 06:32:00,44.0,43.0,30.15,North,0,0.0,0.0,95,0.00,,,0.00,,2013-03-05 11:32:00,
2013-03-05 06:42:00,44.0,43.0,30.15,North,0,0.0,0.0,95,0.00,,,0.00,,2013-03-05 11:42:00,
2013-03-05 06:52:00,44.0,43.0,30.16,WNW,292,0.0,0.0,95,0.00,,,0.00,,2013-03-05 11:52:00,
2013-03-05 07:02:00,45.0,44.0,30.16,West,271,0.0,0.0,95,0.00,,,0.00,,2013-03-05 12:02:00,
2013-03-05 07:12:00,45.0,44.0,30.16,West,271,0.0,0.0,95,0.00,,,0.00,,2013-03-05 12:12:00,
2013-03-05 07:22:00,46.0,45.0,30.16,NW,315,0.0,0.0,95,0.00,,,0.00,,2013-03-05 12:22:00,
2013-03-05 07:32:00,47.0,45.0,30.16,West,260,0.0,0.0,93,0.00,,,0.00,,2013-03-05 12:32:00,
2013-03-05 07:42:00,47.0,45.0,30.16,West,260,0.0,0.0,93,0.00,,,0.00,,2013-03-05 12:42:00,
2013-03-05 07:53:00,48.0,46.0,30.16,NNE,22,0.0,0.0,93,0.00,,,0.00,,2013-03-05 12:53:00,
2013-03-05 08:02:00,52.0,50.0,30.16,NNW,333,0.0,0.0,93,0.00,,,0.00,,2013-03-05 13:02:00,
2013-03-05 08:11:00,52.0,50.0,30.16,NNW,333,0.0,0.0,93,0.00,,,0.00,,2013-03-05 13:11:00,
2013-03-05 08:22:00,61.0,52.0,30.16,East,87,0.0,0.0,72,0.00,,,0.00,,2013-03-05 13:22:00,
2013-03-05 08:32:00,63.0,53.0,30.17,WSW,249,0.0,2.0,69,0.00,,,0.00,,2013-03-05 13:32:00,
2013-03-05 08:42:00,63.0,53.0,30.17,WSW,249,0.0,2.0,69,0.00,,,0.00,,2013-03-05 13:42:00,
2013-03-05 08:52:00,64.0,53.0,30.17,South,172,0.0,1.0,67,0.00,,,0.00,,2013-03-05 13:52:00,
2013-03-05 09:02:00,67.0,55.0,30.17,West,278,0.0,0.0,65,0.00,,,0.00,,2013-03-05 14:02:00,
2013-03-05 09:11:00,67.0,55.0,30.17,West,278,0.0,0.0,65,0.00,,,0.00,,2013-03-05 14:11:00,
2013-03-05 09:22:00,69.0,56.0,30.17,WSW,254,1.0,2.0,63,0.00,,,0.00,,2013-03-05 14:22:00,
2013-03-05 09:32:00,70.0,55.0,30.18,West,270,0.0,2.0,59,0.00,,,0.00,,2013-03-05 14:32:00,
2013-03-05 09:42:00,70.0,55.0,30.18,West,270,0.0,2.0,59,0.00,,,0.00,,2013-03-05 14:42:00,
2013-03-05 09:52:00,73.0,57.0,30.17,SSE,152,2.0,3.0,57,0.00,,,0.00,,2013-03-05 14:52:00,
2013-03-05 10:02:00,73.0,57.0,30.17,SSE,152,2.0,2.0,58,0.00,,,0.00,,2013-03-05 15:02:00,
2013-03-05 10:11:00,73.0,57.0,30.17,SSE,152,2.0,2.0,58,0.00,,,0.00,,2013-03-05 15:11:00,
2013-03-05 10:21:00,73.0,57.0,30.17,SSE,147,3.0,7.0,57,0.00,,,0.00,,2013-03-05 15:21:00,
2013-03-05 10:32:00,73.0,57.0,30.16,South,185,4.0,6.0,58,0.00,,,0.00,,2013-03-05 15:32:00,
2013-03-05 10:42:00,73.0,57.0,30.16,South,185,4.0,6.0,58,0.00,,,0.00,,2013-03-05 15:42:00,
2013-03-05 10:52:00,73.0,57.0,30.16,SW,227,3.0,5.0,57,0.00,,,0.00,,2013-03-05 15:52:00,
2013-03-05 11:01:00,74.0,58.0,30.16,West,276,4.0,7.0,57,0.00,,,0.00,,2013-03-05 16:01:00,
2013-03-05 11:11:00,74.0,58.0,30.16,West,276,4.0,7.0,57,0.00,,,0.00,,2013-03-05 16:11:00,
2013-03-05 11:22:00,74.0,57.0,30.16,SSW,202,3.0,7.0,55,0.00,,,0.00,,2013-03-05 16:22:00,
2013-03-05 11:32:00,76.0,57.0,30.16,ESE,112,5.0,8.0,52,0.00,,,0.00,,2013-03-05 16:32:00,
2013-03-05 11:42:00,76.0,57.0,30.16,ESE,112,5.0,8.0,52,0.00,,,0.00,,2013-03-05 16:42:00,
2013-03-05 11:52:00,75.0,57.0,30.16,WSW,238,4.0,7.0,53,0.00,,,0.00,,2013-03-05 16:52:00,
2013-03-05 12:01:00,76.0,58.0,30.16,SSE,167,5.0,8.0,53,0.00,,,0.00,,2013-03-05 17:01:00,
2013-03-05 12:11:00,76.0,58.0,30.16,SSE,167,5.0,8.0,53,0.00,,,0.00,,2013-03-05 17:11:00,
2013-03-05 12:21:00,76.0,58.0,30.16,SE,143,3.0,7.0,53,0.00,,,0.00,,2013-03-05 17:21:00,
2013-03-05 12:32:00,75.0,57.0,30.15,South,180,4.0,6.0,54,0.00,,,0.00,,2013-03-05 17:32:00,
2013-03-05 12:42:00,75.0,57.0,30.15,South,180,4.0,6.0,54,0.00,,,0.00,,2013-03-05 17:42:00,
2013-03-05 12:53:00,76.0,58.0,30.15,WNW,287,3.0,5.0,53,0.00,,,0.00,,2013-03-05 17:53:00,
2013-03-05 13:02:00,76.0,57.0,30.15,East,101,5.0,7.0,51,0.00,,,0.00,,2013-03-05 18:02:00,
2013-03-05 13:11:00,76.0,57.0,30.15,East,101,5.0,7.0,51,0.00,,,0.00,,2013-03-05 18:11:00,
2013-03-05 13:22:00,76.0,57.0,30.14,East,95,5.0,8.0,52,0.00,,,0.00,,2013-03-05 18:22:00,
2013-03-05 13:32:00,76.0,57.0,30.13,SW,231,5.0,6.0,51,0.00,,,0.00,,2013-03-05 18:32:00,
2013-03-05 13:42:00,76.0,57.0,30.13,SW,231,5.0,6.0,51,0.00,,,0.00,,2013-03-05 18:42:00,
2013-03-05 13:53:00,76.0,58.0,30.12,ESE,121,5.0,10.0,53,0.00,,,0.00,,2013-03-05 18:53:00,
2013-03-05 14:01:00,76.0,57.0,30.11,ESE,123,5.0,7.0,52,0.00,,,0.00,,2013-03-05 19:01:00,
2013-03-05 14:11:00,76.0,57.0,30.11,ESE,123,5.0,7.0,52,0.00,,,0.00,,2013-03-05 19:11:00,
2013-03-05 14:21:00,76.0,57.0,30.11,North,359,5.0,10.0,51,0.00,,,0.00,,2013-03-05 19:21:00,
2013-03-05 14:32:00,75.0,57.0,30.10,WSW,258,4.0,9.0,53,0.00,,,0.00,,2013-03-05 19:32:00,
2013-03-05 14:42:00,75.0,57.0,30.10,WSW,258,4.0,9.0,53,0.00,,,0.00,,2013-03-05 19:42:00,
2013-03-05 14:52:00,76.0,57.0,30.10,SSE,168,5.0,7.0,52,0.00,,,0.00,,2013-03-05 19:52:00,
2013-03-05 15:01:00,76.0,56.0,30.09,South,179,5.0,8.0,50,0.00,,,0.00,,2013-03-05 20:01:00,
2013-03-05 15:11:00,76.0,58.0,30.10,SW,232,5.0,7.0,53,0.00,,,0.00,,2013-03-05 20:11:00,
2013-03-05 15:22:00,76.0,58.0,30.10,SW,232,5.0,7.0,53,0.00,,,0.00,,2013-03-05 20:22:00,
2013-03-05 15:32:00,75.0,56.0,30.10,South,178,6.0,7.0,52,0.00,,,0.00,,2013-03-05 20:32:00,
2013-03-05 15:42:00,75.0,56.0,30.10,South,178,6.0,7.0,52,0.00,,,0.00,,2013-03-05 20:42:00,
2013-03-05 15:52:00,75.0,57.0,30.09,SSW,203,4.0,8.0,53,0.00,,,0.00,,2013-03-05 20:52:00,
2013-03-05 16:02:00,75.0,58.0,30.09,SSE,167,5.0,7.0,55,0.00,,,0.00,,2013-03-05 21:02:00,
2013-03-05 16:11:00,75.0,58.0,30.09,SSE,167,5.0,7.0,55,0.00,,,0.00,,2013-03-05 21:11:00,
2013-03-05 16:22:00,74.0,57.0,30.09,SE,146,6.0,7.0,55,0.00,,,0.00,,2013-03-05 21:22:00,
2013-03-05 16:32:00,75.0,57.0,30.09,SSE,163,5.0,6.0,54,0.00,,,0.00,,2013-03-05 21:32:00,
2013-03-05 16:42:00,75.0,57.0,30.09,SSE,163,5.0,6.0,54,0.00,,,0.00,,2013-03-05 21:42:00,
2013-03-05 16:52:00,74.0,56.0,30.09,SW,216,4.0,6.0,54,0.00,,,0.00,,2013-03-05 21:52:00,
2013-03-05 17:01:00,73.0,56.0,30.09,South,182,3.0,9.0,55,0.00,,,0.00,,2013-03-05 22:01:00,
2013-03-05 17:11:00,73.0,56.0,30.09,South,182,3.0,9.0,55,0.00,,,0.00,,2013-03-05 22:11:00,
2013-03-05 17:22:00,73.0,56.0,30.09,SSE,166,5.0,7.0,56,0.00,,,0.00,,2013-03-05 22:22:00,
2013-03-05 17:32:00,74.0,57.0,30.09,ESE,112,6.0,8.0,56,0.00,,,0.00,,2013-03-05 22:32:00,
2013-03-05 17:42:00,74.0,57.0,30.09,ESE,112,6.0,8.0,56,0.00,,,0.00,,2013-03-05 22:42:00,
2013-03-05 17:52:00,72.0,56.0,30.09,SSE,150,3.0,8.0,58,0.00,,,0.00,,2013-03-05 22:52:00,
2013-03-05 18:01:00,71.0,57.0,30.09,SSW,209,5.0,6.0,61,0.00,,,0.00,,2013-03-05 23:01:00,
2013-03-05 18:11:00,71.0,57.0,30.09,SSW,209,5.0,6.0,61,0.00,,,0.00,,2013-03-05 23:11:00,
2013-03-05 18:21:00,70.0,56.0,30.09,ESE,112,3.0,5.0,62,0.00,,,0.00,,2013-03-05 23:21:00,
2013-03-05 18:32:00,69.0,56.0,30.09,South,172,3.0,6.0,64,0.00,,,0.00,,2013-03-05 23:32:00,
2013-03-05 18:42:00,69.0,56.0,30.09,South,172,3.0,6.0,64,0.00,,,0.00,,2013-03-05 23:42:00,
2013-03-05 18:53:00,69.0,57.0,30.09,SSE,167,2.0,5.0,65,0.00,,,0.00,,2013-03-05 23:53:00,
2013-03-05 19:01:00,68.0,57.0,30.09,SSE,166,2.0,5.0,67,0.00,,,0.00,,2013-03-06 00:01:00,
2013-03-05 19:11:00,68.0,57.0,30.09,SSE,166,2.0,5.0,67,0.00,,,0.00,,2013-03-06 00:11:00,
2013-03-05 19:21:00,68.0,57.0,30.10,SSW,206,3.0,6.0,68,0.00,,,0.00,,2013-03-06 00:21:00,
2013-03-05 19:32:00,67.0,56.0,30.10,SW,236,3.0,3.0,69,0.00,,,0.00,,2013-03-06 00:32:00,
2013-03-05 19:42:00,67.0,56.0,30.10,SW,236,3.0,3.0,69,0.00,,,0.00,,2013-03-06 00:42:00,
2013-03-05 19:52:00,67.0,56.0,30.10,South,180,3.0,3.0,69,0.00,,,0.00,,2013-03-06 00:52:00,
2013-03-05 20:02:00,67.0,56.0,30.10,South,180,3.0,3.0,69,0.00,,,0.00,,2013-03-06 01:02:00,
2013-03-05 20:11:00,67.0,56.0,30.10,South,180,3.0,3.0,69,0.00,,,0.00,,2013-03-06 01:11:00,
2013-03-05 20:21:00,66.0,56.0,30.10,South,181,1.0,3.0,69,0.00,,,0.00,,2013-03-06 01:21:00,
2013-03-05 20:32:00,66.0,56.0,30.10,SSW,192,2.0,3.0,70,0.00,,,0.00,,2013-03-06 01:32:00,
2013-03-05 20:42:00,66.0,56.0,30.10,SSW,192,2.0,3.0,70,0.00,,,0.00,,2013-03-06 01:42:00,
2013-03-05 20:52:00,65.0,55.0,30.10,South,182,2.0,3.0,71,0.00,,,0.00,,2013-03-06 01:52:00,
2013-03-05 21:01:00,65.0,55.0,30.10,South,191,2.0,5.0,71,0.00,,,0.00,,2013-03-06 02:01:00,
2013-03-05 21:11:00,65.0,55.0,30.10,South,191,2.0,5.0,71,0.00,,,0.00,,2013-03-06 02:11:00,
2013-03-05 21:22:00,65.0,56.0,30.10,WSW,249,2.0,3.0,72,0.00,,,0.00,,2013-03-06 02:22:00,
2013-03-05 21:32:00,65.0,56.0,30.10,WSW,241,2.0,5.0,72,0.00,,,0.00,,2013-03-06 02:32:00,
2013-03-05 21:42:00,65.0,56.0,30.10,WSW,241,2.0,5.0,72,0.00,,,0.00,,2013-03-06 02:42:00,
2013-03-05 21:52:00,65.0,56.0,30.10,SW,228,3.0,7.0,73,0.00,,,0.00,,2013-03-06 02:52:00,
2013-03-05 22:02:00,64.0,55.0,30.11,WSW,246,3.0,6.0,73,0.00,,,0.00,,2013-03-06 03:02:00,
2013-03-05 22:11:00,64.0,55.0,30.11,WSW,246,3.0,6.0,73,0.00,,,0.00,,2013-03-06 03:11:00,
2013-03-05 22:22:00,64.0,56.0,30.10,South,191,4.0,5.0,75,0.00,,,0.00,,2013-03-06 03:22:00,
2013-03-05 22:32:00,64.0,56.0,30.11,SW,216,2.0,3.0,75,0.00,,,0.00,,2013-03-06 03:32:00,
2013-03-05 22:42:00,64.0,56.0,30.11,SW,216,2.0,3.0,75,0.00,,,0.00,,2013-03-06 03:42:00,
2013-03-05 22:52:00,64.0,56.0,30.10,SE,131,1.0,5.0,76,0.00,,,0.00,,2013-03-06 03:52:00,
2013-03-05 23:02:00,63.0,55.0,30.09,SSW,194,3.0,5.0,76,0.00,,,0.00,,2013-03-06 04:02:00,
2013-03-05 23:11:00,63.0,55.0,30.09,SSW,194,3.0,5.0,76,0.00,,,0.00,,2013-03-06 04:11:00,
2013-03-05 23:22:00,63.0,56.0,30.09,South,188,2.0,5.0,78,0.00,,,0.00,,2013-03-06 04:22:00,
2013-03-05 23:32:00,63.0,56.0,30.09,SW,236,3.0,6.0,79,0.00,,,0.00,,2013-03-06 04:32:00,
2013-03-05 23:42:00,63.0,56.0,30.09,SW,236,3.0,6.0,79,0.00,,,0.00,,2013-03-06 04:42:00,
2013-03-05 23:52:00,62.0,55.0,30.09,West,270,2.0,5.0,79,0.00,,,0.00,,2013-03-06 04:52:00,